METAR TAF

[Source: ADDS]
METAR
LFCR 150530Z AUTO 13004KT 9999 FEW009 OVC031 02/01 Q0998 TEMPO 3000 BR BKN003 =
LFCR 142300Z 1500/1524 22005KT 9999 BKN010 PROB30 TEMPO 1500/1502 4000 -RASN BKN004 PROB30 TEMPO 1502/1508 3000 BR BKN003 BECMG 1505/1507 15005KT BECMG 1508/1510 SCT012 TEMPO 1510/1513 BKN016 BECMG 1513/1515 VRB02KT SCT025 PROB30 TEMPO 1517/1520 BKN030 LFBA 150530Z AUTO 12006KT 7000 BKN001 OVC170 02/01 Q0998 =
LFSL 150530Z AUTO 19003KT 140V260 9999 OVC004 04/04 Q0998 TEMPO 3000 BR =
LFSL 150500Z 1506/1515 16005KT 9999 BKN012 BECMG 1506/1508 VRB02KT TEMPO 1506/1509 3000 -DZ BKN003 BECMG 1511/1513 SCT010 SCT035 LFLW 150530Z AUTO VRB02KT 9999 ////// 01/01 Q0997 =
LFLW 150500Z 1506/1515 16004KT 9999 BKN007 PROB40 TEMPO 1506/1509 3000 -RASN BKN004 BECMG 1509/1511 SCT018 PROB30 TEMPO 1512/1515 BKN025 BECMG 1512/1514 VRB02KT
TAF
LFCR 142300Z 1500/1524 22005KT 9999 BKN010 PROB30 TEMPO 1500/1502 4000 -RASN BKN004 PROB30 TEMPO 1502/1508 3000 BR BKN003 BECMG 1505/1507 15005KT BECMG 1508/1510 SCT012 TEMPO 1510/1513 BKN016 BECMG 1513/1515 VRB02KT SCT025 PROB30 TEMPO 1517/1520 BKN030 =
LFSL 150500Z 1506/1515 16005KT 9999 BKN012 BECMG 1506/1508 VRB02KT TEMPO 1506/1509 3000 -DZ BKN003 BECMG 1511/1513 SCT010 SCT035 =
LFLW 150500Z 1506/1515 16004KT 9999 BKN007 PROB40 TEMPO 1506/1509 3000 -RASN BKN004 BECMG 1509/1511 SCT018 PROB30 TEMPO 1512/1515 BKN025 BECMG 1512/1514 VRB02KT =
SR / SS: 06:49 / 16:27 UTC (LFCC 2019-11-15)